createdAt,value
2023-05-15T00:01:16.834Z,11.23
2023-05-15T00:04:06.592Z,11.18
2023-05-15T00:06:57.263Z,11.13
2023-05-15T00:09:46.453Z,11.13
2023-05-15T00:12:36.783Z,11.07
2023-05-15T00:15:26.374Z,11.13
2023-05-15T00:18:16.133Z,11.08
2023-05-15T00:21:05.776Z,11.07
2023-05-15T00:23:58.460Z,11.00
2023-05-15T00:26:47.688Z,10.89
2023-05-15T00:29:36.992Z,10.87
2023-05-15T00:32:26.398Z,10.86
2023-05-15T00:35:16.025Z,10.85
2023-05-15T00:38:05.286Z,10.79
2023-05-15T00:40:57.252Z,10.68
2023-05-15T00:43:46.855Z,10.70
2023-05-15T00:46:39.400Z,10.70
2023-05-15T00:49:30.788Z,10.67
2023-05-15T00:52:21.520Z,10.62
2023-05-15T00:55:11.454Z,10.57
2023-05-15T00:58:03.639Z,10.48
2023-05-15T01:00:55.214Z,10.49
2023-05-15T01:03:45.181Z,10.44
2023-05-15T01:06:34.485Z,10.49
2023-05-15T01:09:26.845Z,10.46
2023-05-15T01:12:18.186Z,10.48
2023-05-15T01:15:10.158Z,10.43
2023-05-15T01:17:59.491Z,10.37
2023-05-15T01:21:19.697Z,10.26
2023-05-15T01:24:33.014Z,10.21
2023-05-15T01:27:31.590Z,10.18
2023-05-15T01:30:28.414Z,10.12
2023-05-15T01:33:23.611Z,10.12
2023-05-15T01:36:20.590Z,10.02
2023-05-15T01:39:12.270Z,9.90
2023-05-15T01:42:08.969Z,9.95
2023-05-15T01:45:03.212Z,9.92
2023-05-15T01:47:55.858Z,9.90
2023-05-15T01:50:46.940Z,9.84
2023-05-15T01:53:37.862Z,9.83
2023-05-15T01:56:28.470Z,9.81
2023-05-15T01:59:20.620Z,9.79
2023-05-15T02:02:12.278Z,9.69
2023-05-15T02:05:02.720Z,9.70
2023-05-15T02:07:52.486Z,9.70
2023-05-15T02:10:42.784Z,9.73
2023-05-15T02:13:33.298Z,9.68
2023-05-15T02:16:22.883Z,9.73
2023-05-15T02:19:13.734Z,9.71
2023-05-15T02:22:03.743Z,9.70
2023-05-15T02:24:53.387Z,9.67
2023-05-15T02:27:52.614Z,9.60
2023-05-15T02:30:50.740Z,9.61
2023-05-15T02:33:52.945Z,9.59
2023-05-15T02:36:48.966Z,9.57
2023-05-15T02:39:40.102Z,9.52
2023-05-15T02:42:30.934Z,9.50
2023-05-15T02:45:21.858Z,9.51
2023-05-15T02:48:11.271Z,9.48
2023-05-15T02:51:01.684Z,9.42
2023-05-15T02:53:53.276Z,9.35
2023-05-15T02:56:42.953Z,9.30
2023-05-15T02:59:32.267Z,9.25
2023-05-15T03:02:21.630Z,9.24
2023-05-15T03:05:11.361Z,9.21
2023-05-15T03:08:01.705Z,9.12
2023-05-15T03:10:52.569Z,9.23
2023-05-15T03:13:42.343Z,9.25
2023-05-15T03:16:31.634Z,9.23
2023-05-15T03:19:21.034Z,9.18
2023-05-15T03:22:10.234Z,9.17
2023-05-15T03:25:01.874Z,9.11
2023-05-15T03:27:52.821Z,9.10
2023-05-15T03:30:44.919Z,9.07
2023-05-15T03:33:34.128Z,9.06
2023-05-15T03:36:23.730Z,8.96
2023-05-15T03:39:12.982Z,8.97
2023-05-15T03:42:02.292Z,8.92
2023-05-15T03:44:53.110Z,8.94
2023-05-15T03:47:43.038Z,8.93
2023-05-15T03:50:32.709Z,8.93
2023-05-15T03:53:22.095Z,8.91
2023-05-15T03:56:11.377Z,8.90
2023-05-15T03:59:00.668Z,8.87
2023-05-15T04:02:03.618Z,8.88
2023-05-15T04:04:53.875Z,8.85
2023-05-15T04:07:43.185Z,8.86
2023-05-15T04:10:33.816Z,8.82
2023-05-15T04:13:22.987Z,8.84
2023-05-15T04:16:12.186Z,8.80
2023-05-15T04:19:02.967Z,8.81
2023-05-15T04:21:52.338Z,8.81
2023-05-15T04:24:41.812Z,8.75
2023-05-15T04:27:31.038Z,8.72
2023-05-15T04:30:20.768Z,8.76
2023-05-15T04:33:09.996Z,8.74
2023-05-15T04:36:02.012Z,8.75
2023-05-15T04:38:51.749Z,8.64
2023-05-15T04:41:40.951Z,8.73
2023-05-15T04:44:30.244Z,8.69
2023-05-15T04:47:19.482Z,8.70
2023-05-15T04:50:09.833Z,8.67
2023-05-15T04:53:00.405Z,8.77
2023-05-15T04:55:51.456Z,8.73
2023-05-15T04:58:40.638Z,8.72
2023-05-15T05:01:30.568Z,8.77
2023-05-15T05:04:20.266Z,8.75
2023-05-15T05:07:09.618Z,8.74
2023-05-15T05:10:00.332Z,8.76
2023-05-15T05:12:49.633Z,8.73
2023-05-15T05:15:38.947Z,8.82
2023-05-15T05:18:28.315Z,8.80
2023-05-15T05:21:17.650Z,8.81
2023-05-15T05:24:07.180Z,8.84
2023-05-15T05:26:58.447Z,8.84
2023-05-15T05:29:47.741Z,8.83
2023-05-15T05:32:37.003Z,8.88
2023-05-15T05:35:28.296Z,8.88
2023-05-15T05:38:17.551Z,8.96
2023-05-15T05:41:06.805Z,8.96
2023-05-15T05:43:57.389Z,8.99
2023-05-15T05:46:46.608Z,9.05
2023-05-15T05:49:35.850Z,9.07
2023-05-15T05:52:25.224Z,9.10
2023-05-15T05:55:14.573Z,9.12
2023-05-15T05:58:08.564Z,9.18
2023-05-15T06:01:05.848Z,9.28
2023-05-15T06:03:56.118Z,9.35
2023-05-15T06:06:45.427Z,9.46
2023-05-15T06:09:34.826Z,9.52
2023-05-15T06:12:24.067Z,9.48
2023-05-15T06:15:13.787Z,9.64
2023-05-15T06:18:04.702Z,9.64
2023-05-15T06:20:54.122Z,9.74
2023-05-15T06:23:46.165Z,9.71
2023-05-15T06:26:35.794Z,9.85
2023-05-15T06:29:28.840Z,9.86
2023-05-15T06:32:18.248Z,9.94
2023-05-15T06:35:11.419Z,9.95
2023-05-15T06:38:02.864Z,10.05
2023-05-15T06:40:52.093Z,10.15
2023-05-15T06:43:41.380Z,10.14
2023-05-15T06:46:30.751Z,10.14
2023-05-15T06:49:20.162Z,10.27
2023-05-15T06:52:11.224Z,10.36
2023-05-15T06:55:00.944Z,10.48
2023-05-15T06:57:50.506Z,10.39
2023-05-15T07:00:40.414Z,10.62
2023-05-15T07:03:29.709Z,10.67
2023-05-15T07:06:19.153Z,10.85
2023-05-15T07:09:10.096Z,10.93
2023-05-15T07:11:59.499Z,11.07
2023-05-15T07:14:48.844Z,11.13
2023-05-15T07:17:38.271Z,11.07
2023-05-15T07:20:30.326Z,11.19
2023-05-15T07:23:21.604Z,11.30
2023-05-15T07:26:16.837Z,11.28
2023-05-15T07:29:10.341Z,11.42
2023-05-15T07:32:00.326Z,11.58
2023-05-15T07:34:50.220Z,11.81
2023-05-15T07:37:39.739Z,12.02
2023-05-15T07:40:29.055Z,12.32
2023-05-15T07:43:19.809Z,12.71
2023-05-15T07:46:09.135Z,13.11
2023-05-15T07:48:58.473Z,13.53
2023-05-15T07:51:47.795Z,13.85
2023-05-15T07:54:37.207Z,14.10
2023-05-15T07:57:26.872Z,14.11
2023-05-15T08:00:20.226Z,14.09
2023-05-15T08:03:09.760Z,14.16
2023-05-15T08:05:59.812Z,14.29
2023-05-15T08:08:49.228Z,14.35
2023-05-15T08:11:38.842Z,14.50
2023-05-15T08:14:28.119Z,14.69
2023-05-15T08:17:19.683Z,15.02
2023-05-15T08:20:10.725Z,15.21
2023-05-15T08:22:59.921Z,15.53
2023-05-15T08:25:49.271Z,15.77
2023-05-15T08:28:38.520Z,16.06
2023-05-15T08:31:28.051Z,16.07
2023-05-15T08:34:19.041Z,16.05
2023-05-15T08:37:08.557Z,16.34
2023-05-15T08:39:58.093Z,16.63
2023-05-15T08:42:54.200Z,16.60
2023-05-15T08:45:44.773Z,16.74
2023-05-15T08:48:38.449Z,16.58
2023-05-15T08:51:29.460Z,15.92
2023-05-15T08:54:19.148Z,16.04
2023-05-15T08:57:10.575Z,16.09
2023-05-15T09:00:00.490Z,16.14
2023-05-15T09:02:49.962Z,16.14
2023-05-15T09:05:40.255Z,15.95
2023-05-15T09:08:33.829Z,16.15
2023-05-15T09:11:25.351Z,16.43
2023-05-15T09:14:14.982Z,16.18
2023-05-15T09:17:04.316Z,16.40
2023-05-15T09:19:53.648Z,16.53
2023-05-15T09:22:42.910Z,16.60
2023-05-15T09:25:39.556Z,15.98
2023-05-15T09:28:32.501Z,16.04
2023-05-15T09:31:23.116Z,15.48
2023-05-15T09:34:12.395Z,15.98
2023-05-15T09:37:04.498Z,16.50
2023-05-15T09:39:54.151Z,17.25
2023-05-15T09:42:52.497Z,17.59
2023-05-15T09:45:41.866Z,17.50
2023-05-15T09:48:32.052Z,17.48
2023-05-15T09:51:22.192Z,17.20
2023-05-15T09:54:17.264Z,16.81
2023-05-15T09:57:10.756Z,16.60
2023-05-15T10:00:05.296Z,17.05
2023-05-15T10:03:03.783Z,17.45
2023-05-15T10:06:01.507Z,17.50
2023-05-15T10:08:54.672Z,18.09
2023-05-15T10:11:45.535Z,18.51
2023-05-15T10:14:35.124Z,19.27
2023-05-15T10:17:26.446Z,19.64
2023-05-15T10:20:17.259Z,20.12
2023-05-15T10:23:11.733Z,20.77
2023-05-15T10:26:05.516Z,21.09
2023-05-15T10:28:56.276Z,20.99
2023-05-15T10:31:46.114Z,20.60
2023-05-15T10:34:37.154Z,20.12
2023-05-15T10:37:27.299Z,19.82
2023-05-15T10:40:18.656Z,19.41
2023-05-15T10:43:11.604Z,19.39
2023-05-15T10:46:00.620Z,18.73
2023-05-15T10:48:50.155Z,18.48
2023-05-15T10:51:43.564Z,17.97
2023-05-15T10:54:32.848Z,17.49
2023-05-15T10:57:23.275Z,17.38
2023-05-15T11:00:29.603Z,17.27
2023-05-15T11:03:48.563Z,17.82
2023-05-15T11:06:42.726Z,18.01
2023-05-15T11:09:38.954Z,18.09
2023-05-15T11:12:48.324Z,18.04
2023-05-15T11:15:45.436Z,18.11
2023-05-15T11:18:39.241Z,18.11
2023-05-15T11:21:33.552Z,17.82
2023-05-15T11:24:29.120Z,18.20
2023-05-15T11:27:21.591Z,18.37
2023-05-15T11:30:18.117Z,18.80
2023-05-15T11:33:12.153Z,19.26
2023-05-15T11:36:02.390Z,19.48
2023-05-15T11:38:53.874Z,19.47
2023-05-15T11:41:45.152Z,19.29
2023-05-15T11:44:34.434Z,19.41
2023-05-15T11:47:24.415Z,19.59
2023-05-15T11:50:13.993Z,19.70
2023-05-15T11:53:09.059Z,19.79
2023-05-15T11:55:58.489Z,19.68
2023-05-15T11:58:52.037Z,19.76
2023-05-15T12:01:44.140Z,19.78
2023-05-15T12:04:36.085Z,19.95
2023-05-15T12:07:25.582Z,19.93
2023-05-15T12:10:15.644Z,19.79
2023-05-15T12:13:05.270Z,19.68
2023-05-15T12:15:57.354Z,19.94
2023-05-15T12:18:49.137Z,19.93
2023-05-15T12:21:43.286Z,19.78
2023-05-15T12:24:32.565Z,19.50
2023-05-15T12:27:23.823Z,19.21
2023-05-15T12:30:15.254Z,18.91
2023-05-15T12:33:08.203Z,18.52
2023-05-15T12:36:01.271Z,18.31
2023-05-15T12:38:51.422Z,18.94
2023-05-15T12:41:40.707Z,19.97
2023-05-15T12:44:30.086Z,21.19
2023-05-15T12:47:24.953Z,22.38
2023-05-15T12:50:21.164Z,22.91
2023-05-15T12:53:10.985Z,22.99
2023-05-15T12:56:00.344Z,23.00
2023-05-15T12:58:49.910Z,22.51
2023-05-15T13:01:39.341Z,22.40
2023-05-15T13:04:29.137Z,21.77
2023-05-15T13:07:19.767Z,21.07
2023-05-15T13:10:10.706Z,20.50
2023-05-15T13:13:00.255Z,20.16
2023-05-15T13:15:51.226Z,20.30
2023-05-15T13:18:40.648Z,20.72
2023-05-15T13:21:29.949Z,21.38
2023-05-15T13:24:20.677Z,21.70
2023-05-15T13:27:09.922Z,21.72
2023-05-15T13:29:59.156Z,21.52
2023-05-15T13:32:48.852Z,20.99
2023-05-15T13:35:38.835Z,20.78
2023-05-15T13:38:28.079Z,20.29
2023-05-15T13:41:18.877Z,20.03
2023-05-15T13:44:08.217Z,20.30
2023-05-15T13:46:57.499Z,21.07
2023-05-15T13:49:47.606Z,21.61
2023-05-15T13:52:37.225Z,21.44
2023-05-15T13:55:26.774Z,21.32
2023-05-15T13:58:17.474Z,21.05
2023-05-15T14:01:08.200Z,20.86
2023-05-15T14:03:57.556Z,20.78
2023-05-15T14:06:46.874Z,20.47
2023-05-15T14:09:36.321Z,20.31
2023-05-15T14:12:25.845Z,20.07
2023-05-15T14:15:16.504Z,19.87
2023-05-15T14:18:05.927Z,19.77
2023-05-15T14:20:55.281Z,19.57
2023-05-15T14:23:44.541Z,19.27
2023-05-15T14:26:34.135Z,19.19
2023-05-15T14:29:23.524Z,19.02
2023-05-15T14:32:14.406Z,18.92
2023-05-15T14:35:03.971Z,18.82
2023-05-15T14:37:59.581Z,18.81
2023-05-15T14:40:48.829Z,18.74
2023-05-15T14:43:38.851Z,18.70
2023-05-15T14:46:31.324Z,18.67
2023-05-15T14:49:24.538Z,18.67
2023-05-15T14:52:16.509Z,18.69
2023-05-15T14:55:09.573Z,18.67
2023-05-15T14:58:03.009Z,18.70
2023-05-15T15:00:54.977Z,18.73
2023-05-15T15:03:44.446Z,18.73
2023-05-15T15:06:35.078Z,18.78
2023-05-15T15:09:25.526Z,18.88
2023-05-15T15:12:15.609Z,19.02
2023-05-15T15:15:14.573Z,19.19
2023-05-15T15:18:09.855Z,19.29
2023-05-15T15:21:01.957Z,19.38
2023-05-15T15:24:00.509Z,19.41
2023-05-15T15:26:52.143Z,19.39
2023-05-15T15:29:41.478Z,19.17
2023-05-15T15:32:30.930Z,19.15
2023-05-15T15:35:20.355Z,18.90
2023-05-15T15:38:13.530Z,18.85
2023-05-15T15:41:05.654Z,18.77
2023-05-15T15:43:56.623Z,18.85
2023-05-15T15:46:48.035Z,18.96
2023-05-15T15:49:40.625Z,19.08
2023-05-15T15:52:35.114Z,19.06
2023-05-15T15:55:25.127Z,19.15
2023-05-15T15:58:16.908Z,19.16
2023-05-15T16:01:13.472Z,19.46
2023-05-15T16:04:02.993Z,19.51
2023-05-15T16:06:52.256Z,19.49
2023-05-15T16:09:41.534Z,19.51
2023-05-15T16:12:33.522Z,19.65
2023-05-15T16:15:24.655Z,19.81
2023-05-15T16:18:21.760Z,19.87
2023-05-15T16:21:16.954Z,19.83
2023-05-15T16:24:07.144Z,19.73
2023-05-15T16:27:05.540Z,19.39
2023-05-15T16:29:58.078Z,19.26
2023-05-15T16:32:54.081Z,19.17
2023-05-15T16:35:52.575Z,18.91
2023-05-15T16:38:42.052Z,18.81
2023-05-15T16:41:31.421Z,18.72
2023-05-15T16:44:20.615Z,18.70
2023-05-15T16:47:18.400Z,18.89
2023-05-15T16:50:10.781Z,18.95
2023-05-15T16:53:02.965Z,18.95
2023-05-15T16:55:55.668Z,18.83
2023-05-15T16:58:44.932Z,18.81
2023-05-15T17:01:34.240Z,18.80
2023-05-15T17:04:24.899Z,18.75
2023-05-15T17:07:15.855Z,18.64
2023-05-15T17:10:07.968Z,18.59
2023-05-15T17:13:00.098Z,18.56
2023-05-15T17:15:49.909Z,18.54
2023-05-15T17:18:39.981Z,18.63
2023-05-15T17:21:29.583Z,18.67
2023-05-15T17:24:20.483Z,18.83
2023-05-15T17:27:18.184Z,18.91
2023-05-15T17:30:09.609Z,19.11
2023-05-15T17:33:00.387Z,19.30
2023-05-15T17:35:51.458Z,19.50
2023-05-15T17:38:40.707Z,19.53
2023-05-15T17:41:31.501Z,19.43
2023-05-15T17:44:21.337Z,19.37
2023-05-15T17:47:11.149Z,19.32
2023-05-15T17:50:00.433Z,19.09
2023-05-15T17:52:49.906Z,19.07
2023-05-15T17:55:39.322Z,19.00
2023-05-15T17:58:29.965Z,18.92
2023-05-15T18:01:20.060Z,18.73
2023-05-15T18:04:09.631Z,18.61
2023-05-15T18:06:59.067Z,18.47
2023-05-15T18:09:48.519Z,18.42
2023-05-15T18:12:37.855Z,18.26
2023-05-15T18:15:28.730Z,18.18
2023-05-15T18:18:18.393Z,18.21
2023-05-15T18:21:07.702Z,18.21
2023-05-15T18:23:57.056Z,18.19
2023-05-15T18:26:46.866Z,18.18
2023-05-15T18:29:36.193Z,18.14
2023-05-15T18:32:26.814Z,18.12
2023-05-15T18:35:16.148Z,18.07
2023-05-15T18:38:05.559Z,18.06
2023-05-15T18:40:54.918Z,18.05
2023-05-15T18:43:44.215Z,18.10
2023-05-15T18:46:34.227Z,18.03
2023-05-15T18:49:24.933Z,17.97
2023-05-15T18:52:14.421Z,17.97
2023-05-15T18:55:03.751Z,17.87
2023-05-15T18:57:53.074Z,17.76
2023-05-15T19:00:42.426Z,17.70
2023-05-15T19:03:31.796Z,17.63
2023-05-15T19:06:22.443Z,17.57
2023-05-15T19:09:12.015Z,17.53
2023-05-15T19:12:02.499Z,17.36
2023-05-15T19:14:51.795Z,17.31
2023-05-15T19:17:41.050Z,17.22
2023-05-15T19:20:30.382Z,17.20
2023-05-15T19:23:21.650Z,17.12
2023-05-15T19:26:11.581Z,17.00
2023-05-15T19:29:00.908Z,17.04
2023-05-15T19:31:50.293Z,17.01
2023-05-15T19:34:39.603Z,16.99
2023-05-15T19:37:29.110Z,16.94
2023-05-15T19:40:19.912Z,16.94
2023-05-15T19:43:11.396Z,16.87
2023-05-15T19:46:00.710Z,16.90
2023-05-15T19:48:50.108Z,16.84
2023-05-15T19:51:41.151Z,16.76
2023-05-15T19:54:30.499Z,16.73
2023-05-15T19:57:21.250Z,16.69
2023-05-15T20:00:12.586Z,16.68
2023-05-15T20:03:02.007Z,16.64
2023-05-15T20:05:52.133Z,16.59
2023-05-15T20:08:42.086Z,16.66
2023-05-15T20:11:31.920Z,16.68
2023-05-15T20:14:22.582Z,16.58
2023-05-15T20:17:12.049Z,16.64
2023-05-15T20:20:02.300Z,16.64
2023-05-15T20:22:51.796Z,16.55
2023-05-15T20:25:46.308Z,16.51
2023-05-15T20:28:39.041Z,16.48
2023-05-15T20:31:29.965Z,16.35
2023-05-15T20:34:23.512Z,16.36
2023-05-15T20:37:13.968Z,16.23
2023-05-15T20:40:05.325Z,16.28
2023-05-15T20:42:54.605Z,16.13
2023-05-15T20:45:44.101Z,16.18
2023-05-15T20:48:34.752Z,16.17
2023-05-15T20:51:24.093Z,16.11
2023-05-15T20:54:13.462Z,16.00
2023-05-15T20:57:02.911Z,16.07
2023-05-15T20:59:52.619Z,15.99
2023-05-15T21:02:41.991Z,16.01
2023-05-15T21:05:32.838Z,16.04
2023-05-15T21:08:22.210Z,16.05
2023-05-15T21:11:11.500Z,16.07
2023-05-15T21:14:01.254Z,16.00
2023-05-15T21:16:50.495Z,15.93
2023-05-15T21:19:39.828Z,15.90
2023-05-15T21:22:30.679Z,15.76
2023-05-15T21:25:20.245Z,15.69
2023-05-15T21:28:09.557Z,15.64
2023-05-15T21:31:00.538Z,15.58
2023-05-15T21:33:49.773Z,15.47
2023-05-15T21:36:39.081Z,15.44
2023-05-15T21:39:29.756Z,15.38
2023-05-15T21:42:19.234Z,15.28
2023-05-15T21:45:09.583Z,15.14
2023-05-15T21:47:58.901Z,15.10
2023-05-15T21:50:48.254Z,14.97
2023-05-15T21:53:37.463Z,14.87
2023-05-15T21:56:28.276Z,14.88
2023-05-15T21:59:17.464Z,14.82
2023-05-15T22:02:07.208Z,14.79
2023-05-15T22:04:56.719Z,14.75
2023-05-15T22:07:46.236Z,14.71
2023-05-15T22:10:35.574Z,14.72
2023-05-15T22:13:26.387Z,14.60
2023-05-15T22:16:20.518Z,14.59
2023-05-15T22:19:18.470Z,14.48
2023-05-15T22:22:18.083Z,14.41
2023-05-15T22:25:08.772Z,14.32
2023-05-15T22:27:58.801Z,14.25
2023-05-15T22:30:49.621Z,14.23
2023-05-15T22:33:39.006Z,14.15
2023-05-15T22:36:28.282Z,14.08
2023-05-15T22:39:17.614Z,14.05
2023-05-15T22:42:08.194Z,13.99
2023-05-15T22:44:57.966Z,13.90
2023-05-15T22:47:49.204Z,13.83
2023-05-15T22:50:38.461Z,13.82
2023-05-15T22:53:28.140Z,13.77
2023-05-15T22:56:17.442Z,13.76
2023-05-15T22:59:06.837Z,13.74
2023-05-15T23:02:00.119Z,13.65
2023-05-15T23:04:50.797Z,13.63
2023-05-15T23:07:40.069Z,13.54
2023-05-15T23:10:29.608Z,13.51
2023-05-15T23:13:19.325Z,13.47
2023-05-15T23:16:10.002Z,13.42
2023-05-15T23:18:59.697Z,13.39
2023-05-15T23:21:50.992Z,13.31
2023-05-15T23:24:40.546Z,13.35
2023-05-15T23:27:29.827Z,13.33
2023-05-15T23:30:20.035Z,13.27
2023-05-15T23:33:09.549Z,13.15
2023-05-15T23:35:59.406Z,13.15
2023-05-15T23:38:50.070Z,13.09
2023-05-15T23:41:39.315Z,13.08
2023-05-15T23:44:28.561Z,13.07
2023-05-15T23:47:18.148Z,12.99
2023-05-15T23:50:09.353Z,12.96
2023-05-15T23:52:58.620Z,12.94
2023-05-15T23:55:49.372Z,12.89
2023-05-15T23:58:38.661Z,12.87
